Airfield :
LOGIN :

Register | Disclaimer

   EN    FR    IT 

 










Legend :    VFR   Marginal VFR   IFR   Intensive IFR   Very Intensive IFR
Visi :
Ceiling :
>= 8 km
>= 3000ft
5 to 8 km
1000 to 3000 ft
1500m to 5 km
500 to 1000 ft
800 to 1500m
200 to 500 ft
< 800m
< 200 ft
Symbols :   Thunderstorms  Fog  Heavy snow  Heavy precipitations  Wind > 20 kt
SIGMETs :     Misc.  Thunderstorms  Icing  Turbulence  Mountain Waves  Volcanic Ashes







- Airport Elevation : 74 ft
- IATA code : EIN


EHEH - Eindhoven

CURRENT METAR :
  • 262325Z AUTO 07005KT 040V130 9999 OVC310 22/12 Q1019 BLU

EXPIRED METARs :
  • 262255Z AUTO 07008KT 9999 OVC290 23/12 Q1019 BLU
  • 262233Z AUTO 07008KT 030V090 9999 BKN350 23/12 Q1019 BLU
  • 262228Z AUTO 06008KT 030V090 9999 BKN350 23/12 Q1019 BLU
  • 262225Z AUTO 06008KT 030V090 9999 BKN350 23/12 Q1019 BLU
  • 262155Z AUTO 06007KT 030V100 9999 OVC290 23/12 Q1019 BLU
  • 262143Z AUTO 06007KT 9999 OVC290 23/12 Q1018 BLU
  • 262125Z AUTO 07007KT 040V110 9999 SCT290 24/12 Q1018 BLU 09008KT CAVOK
  • 262055Z AUTO 06008KT 030V120 9999 OVC300 25/13 Q1018 BLU 09008KT CAVOK

TAF TAF EHEH
Valid from the 26 at 18:00 until the 28 at 00:00 UTC


261734Z 2618/2724 09007KT CAVOK
PROB40
TEMPO 2714/2720 13010G20KT 4000 TSRA SCT040 BKN050CB
No reported NOTAMs for that airfield.



MET'MAP, your aeronautical weather chart ! - Copyright ORBIFLY December 2007 - Disclaimer

ORBIFLY MET'MAP TEAM :

Programming & Development : Alexandra Zaïnal
Concept & Development : Baudouin d'Aumeries
Co-Development & Prog : Marc-Olivier Méhu
Technical & hardware support : Manuel Goepfert

Contact : metmap@orbifly.com




SOURCES & CREDITS :

   NOAA